createdAt,value
2022-11-24T00:01:07.117Z,24.70
2022-11-24T00:03:39.039Z,24.70
2022-11-24T00:06:15.940Z,24.70
2022-11-24T00:08:49.335Z,24.60
2022-11-24T00:11:23.589Z,24.60
2022-11-24T00:13:55.502Z,24.60
2022-11-24T00:16:29.440Z,24.60
2022-11-24T00:19:02.902Z,24.60
2022-11-24T00:21:37.249Z,24.60
2022-11-24T00:24:09.475Z,24.60
2022-11-24T00:26:41.294Z,24.60
2022-11-24T00:29:22.410Z,24.60
2022-11-24T00:31:54.329Z,24.60
2022-11-24T00:34:25.843Z,24.60
2022-11-24T00:36:59.831Z,24.60
2022-11-24T00:39:31.115Z,24.70
2022-11-24T00:42:02.745Z,24.70
2022-11-24T00:44:34.505Z,24.70
2022-11-24T00:47:06.476Z,24.70
2022-11-24T00:49:37.692Z,24.70
2022-11-24T00:52:11.923Z,24.70
2022-11-24T00:54:43.637Z,24.70
2022-11-24T00:57:14.988Z,24.70
2022-11-24T00:59:46.163Z,24.70
2022-11-24T01:02:17.852Z,24.70
2022-11-24T01:04:49.318Z,24.70
2022-11-24T01:07:23.580Z,24.70
2022-11-24T01:09:55.174Z,24.70
2022-11-24T01:12:26.840Z,24.70
2022-11-24T01:14:58.274Z,24.70
2022-11-24T01:17:29.615Z,24.70
2022-11-24T01:20:00.887Z,24.70
2022-11-24T01:22:35.248Z,24.70
2022-11-24T01:25:06.569Z,24.70
2022-11-24T01:27:38.808Z,24.70
2022-11-24T01:30:10.402Z,24.70
2022-11-24T01:32:41.941Z,24.70
2022-11-24T01:35:13.466Z,24.70
2022-11-24T01:37:47.758Z,24.70
2022-11-24T01:40:19.387Z,24.70
2022-11-24T01:42:52.753Z,24.70
2022-11-24T01:45:41.280Z,24.70
2022-11-24T01:48:24.471Z,24.70
2022-11-24T01:51:06.914Z,24.70
2022-11-24T01:53:44.158Z,24.70
2022-11-24T01:56:17.005Z,24.70
2022-11-24T01:58:49.787Z,24.70
2022-11-24T02:01:21.307Z,24.70
2022-11-24T02:03:54.498Z,24.70
2022-11-24T02:06:29.592Z,24.70
2022-11-24T02:09:10.018Z,24.70
2022-11-24T02:11:43.442Z,24.70
2022-11-24T02:14:19.079Z,24.70
2022-11-24T02:16:53.856Z,24.70
2022-11-24T02:19:35.286Z,24.70
2022-11-24T02:22:07.512Z,24.70
2022-11-24T02:24:49.771Z,24.70
2022-11-24T02:27:23.941Z,24.70
2022-11-24T02:29:56.267Z,24.70
2022-11-24T02:32:27.727Z,24.70
2022-11-24T02:35:04.855Z,24.70
2022-11-24T02:37:36.332Z,24.70
2022-11-24T02:40:08.011Z,24.70
2022-11-24T02:42:47.238Z,24.70
2022-11-24T02:45:20.162Z,24.70
2022-11-24T02:47:51.518Z,24.70
2022-11-24T02:50:22.921Z,24.70
2022-11-24T02:52:54.295Z,24.70
2022-11-24T02:55:26.223Z,24.70
2022-11-24T02:58:00.058Z,24.70
2022-11-24T03:00:31.683Z,24.70
2022-11-24T03:03:03.256Z,24.70
2022-11-24T03:05:34.917Z,24.70
2022-11-24T03:08:06.351Z,24.70
2022-11-24T03:10:37.693Z,24.70
2022-11-24T03:13:11.681Z,24.70
2022-11-24T03:15:43.598Z,24.70
2022-11-24T03:18:14.879Z,24.70
2022-11-24T03:20:46.748Z,24.70
2022-11-24T03:23:18.006Z,24.70
2022-11-24T03:25:49.523Z,24.70
2022-11-24T03:28:23.499Z,24.70
2022-11-24T03:30:55.332Z,24.70
2022-11-24T03:33:26.724Z,24.70
2022-11-24T03:35:58.704Z,24.70
2022-11-24T03:38:30.508Z,24.70
2022-11-24T03:41:02.186Z,24.70
2022-11-24T03:43:41.946Z,24.70
2022-11-24T03:46:15.703Z,24.70
2022-11-24T03:48:47.121Z,24.70
2022-11-24T03:51:18.536Z,24.70
2022-11-24T03:53:49.753Z,24.70
2022-11-24T03:56:21.104Z,24.70
2022-11-24T03:58:54.915Z,24.70
2022-11-24T04:01:26.678Z,24.70
2022-11-24T04:03:58.008Z,24.70
2022-11-24T04:06:30.018Z,24.70
2022-11-24T04:09:02.700Z,24.70
2022-11-24T04:11:47.095Z,24.70
2022-11-24T04:14:21.391Z,24.70
2022-11-24T04:16:53.119Z,24.70
2022-11-24T04:19:24.484Z,24.70
2022-11-24T04:21:55.863Z,24.70
2022-11-24T04:24:27.144Z,24.80
2022-11-24T04:26:58.513Z,24.80
2022-11-24T04:29:32.331Z,24.80
2022-11-24T04:32:04.008Z,24.80
2022-11-24T04:34:35.850Z,24.80
2022-11-24T04:37:08.063Z,24.80
2022-11-24T04:39:39.450Z,24.80
2022-11-24T04:42:11.640Z,24.80
2022-11-24T04:44:45.267Z,24.80
2022-11-24T04:47:20.034Z,24.70
2022-11-24T04:49:51.995Z,24.70
2022-11-24T04:52:25.285Z,24.70
2022-11-24T04:54:56.716Z,24.70
2022-11-24T04:57:29.073Z,24.70
2022-11-24T05:00:02.974Z,24.70
2022-11-24T05:02:34.838Z,24.80
2022-11-24T05:05:06.432Z,24.80
2022-11-24T05:07:38.185Z,24.70
2022-11-24T05:10:22.721Z,24.70
2022-11-24T05:12:59.670Z,24.70
2022-11-24T05:15:33.561Z,24.70
2022-11-24T05:18:08.854Z,24.70
2022-11-24T05:20:40.637Z,24.70
2022-11-24T05:23:12.356Z,24.70
2022-11-24T05:25:47.589Z,24.70
2022-11-24T05:28:20.166Z,24.70
2022-11-24T05:30:54.258Z,24.70
2022-11-24T05:33:28.727Z,24.70
2022-11-24T05:36:04.186Z,24.70
2022-11-24T05:38:36.466Z,24.70
2022-11-24T05:41:08.429Z,24.70
2022-11-24T05:43:39.938Z,24.70
2022-11-24T05:46:13.829Z,24.70
2022-11-24T05:48:45.406Z,24.70
2022-11-24T05:51:16.848Z,24.70
2022-11-24T05:53:48.276Z,24.70
2022-11-24T05:56:19.503Z,24.70
2022-11-24T05:58:51.018Z,24.70
2022-11-24T06:01:24.813Z,24.70
2022-11-24T06:03:56.329Z,24.70
2022-11-24T06:06:27.589Z,24.70
2022-11-24T06:08:59.079Z,24.70
2022-11-24T06:11:30.303Z,24.80
2022-11-24T06:14:03.832Z,24.70
2022-11-24T06:16:40.794Z,24.70
2022-11-24T06:19:13.508Z,24.70
2022-11-24T06:21:44.642Z,24.70
2022-11-24T06:24:16.510Z,24.80
2022-11-24T06:26:47.735Z,24.70
2022-11-24T06:29:19.423Z,24.70
2022-11-24T06:31:53.289Z,24.70
2022-11-24T06:34:24.848Z,24.70
2022-11-24T06:36:56.151Z,24.70
2022-11-24T06:39:28.153Z,24.70
2022-11-24T06:41:59.539Z,24.70
2022-11-24T06:44:31.346Z,24.80
2022-11-24T06:47:05.517Z,24.80
2022-11-24T06:49:37.094Z,24.80
2022-11-24T06:52:08.422Z,24.70
2022-11-24T06:54:39.798Z,24.70
2022-11-24T06:57:10.916Z,24.70
2022-11-24T06:59:42.948Z,24.70
2022-11-24T07:02:17.055Z,24.70
2022-11-24T07:04:48.815Z,24.70
2022-11-24T07:07:20.425Z,24.80
2022-11-24T07:09:52.171Z,24.80
2022-11-24T07:12:24.568Z,24.80
2022-11-24T07:14:58.768Z,24.80
2022-11-24T07:17:32.778Z,24.80
2022-11-24T07:20:04.562Z,24.80
2022-11-24T07:22:35.934Z,24.80
2022-11-24T07:25:09.964Z,24.70
2022-11-24T14:20:55.621Z,24.30
2022-11-24T14:23:27.710Z,24.60
2022-11-24T14:25:59.305Z,24.70
2022-11-24T14:28:33.007Z,24.80
2022-11-24T14:31:23.812Z,24.80
2022-11-24T14:34:21.324Z,25.00
2022-11-24T14:36:56.933Z,25.10
2022-11-24T14:39:30.421Z,25.10
2022-11-24T14:42:06.234Z,25.20
2022-11-24T14:44:48.417Z,25.20
2022-11-24T14:47:27.264Z,25.20
2022-11-24T14:50:12.472Z,25.30
2022-11-24T14:52:57.701Z,25.30
2022-11-24T14:55:31.636Z,25.30
2022-11-24T14:58:03.166Z,25.30
2022-11-24T15:00:36.446Z,25.30
2022-11-24T15:03:20.192Z,25.30
2022-11-24T15:05:58.680Z,25.30
2022-11-24T15:08:38.835Z,25.30
2022-11-24T15:11:10.905Z,25.30
2022-11-24T15:13:42.812Z,25.30
2022-11-24T15:16:21.027Z,25.30
2022-11-24T15:19:00.288Z,25.30
2022-11-24T15:21:36.480Z,25.30
2022-11-24T15:24:19.347Z,25.30
2022-11-24T15:26:50.972Z,25.30
2022-11-24T15:29:22.540Z,25.30
2022-11-24T15:31:54.730Z,25.30
2022-11-24T15:34:26.019Z,25.30
2022-11-24T15:36:58.803Z,25.30
2022-11-24T15:39:32.554Z,25.30
2022-11-24T15:42:04.230Z,25.30
2022-11-24T15:44:35.854Z,25.30
2022-11-24T15:47:07.911Z,25.30
2022-11-24T15:49:39.219Z,25.30
2022-11-24T15:52:11.339Z,25.30
2022-11-24T15:54:45.151Z,25.30
2022-11-24T15:57:16.732Z,25.30
2022-11-24T15:59:48.018Z,25.30
2022-11-24T16:02:19.699Z,25.40
2022-11-24T16:04:51.453Z,25.30
2022-11-24T16:07:23.122Z,25.40
2022-11-24T16:09:57.123Z,25.40
2022-11-24T16:12:28.664Z,25.30
2022-11-24T16:14:59.840Z,25.40
2022-11-24T16:17:31.482Z,25.40
2022-11-24T16:20:02.700Z,25.30
2022-11-24T16:22:34.260Z,25.30
2022-11-24T16:25:08.726Z,25.40
2022-11-24T16:27:40.723Z,25.40
2022-11-24T16:30:12.044Z,25.40
2022-11-24T16:32:43.768Z,25.40
2022-11-24T16:35:15.124Z,25.40
2022-11-24T16:37:46.386Z,25.40
2022-11-24T16:40:21.079Z,25.30
2022-11-24T16:42:53.273Z,25.40
2022-11-24T16:45:24.685Z,25.30
2022-11-24T16:47:56.467Z,25.40
2022-11-24T16:50:27.773Z,25.40
2022-11-24T16:52:59.313Z,25.40
2022-11-24T16:55:33.154Z,25.30
2022-11-24T16:58:07.414Z,25.40
2022-11-24T17:00:38.896Z,25.30
2022-11-24T17:03:10.566Z,25.30
2022-11-24T17:05:41.916Z,25.40
2022-11-24T17:08:13.567Z,25.30
2022-11-24T17:10:47.511Z,25.30
2022-11-24T17:13:19.287Z,25.40
2022-11-24T17:15:54.113Z,25.40
2022-11-24T17:18:26.410Z,25.40
2022-11-24T17:21:04.635Z,25.40
2022-11-24T17:23:41.431Z,25.40
2022-11-24T17:26:17.478Z,25.40
2022-11-24T17:28:49.364Z,25.30
2022-11-24T17:31:24.197Z,25.40
2022-11-24T17:33:57.382Z,25.40
2022-11-24T17:36:29.726Z,25.40
2022-11-24T17:39:04.615Z,25.30
2022-11-24T17:41:38.779Z,25.40
2022-11-24T17:44:12.336Z,25.40
2022-11-24T17:46:43.649Z,25.30
2022-11-24T17:49:15.779Z,25.40
2022-11-24T17:51:50.646Z,25.40
2022-11-24T17:57:16.750Z,25.40
2022-11-24T17:59:48.428Z,25.30
2022-11-24T18:02:19.745Z,25.30
2022-11-24T18:04:51.129Z,25.30
2022-11-24T18:07:22.332Z,25.30
2022-11-24T18:09:53.618Z,25.40
2022-11-24T18:12:27.389Z,25.30
2022-11-24T18:14:59.154Z,25.30
2022-11-24T18:17:31.254Z,25.30
2022-11-24T18:20:03.040Z,25.30
2022-11-24T18:23:04.090Z,25.40
2022-11-24T18:25:25.975Z,25.30
2022-11-24T18:28:00.320Z,25.30
2022-11-24T18:30:31.967Z,25.30
2022-11-24T18:33:03.180Z,25.30
2022-11-24T18:35:35.420Z,25.30
2022-11-24T18:38:06.714Z,25.30
2022-11-24T18:40:41.997Z,25.30
2022-11-24T18:43:15.847Z,25.30
2022-11-24T18:45:47.758Z,25.30
2022-11-24T18:48:19.384Z,25.30
2022-11-24T18:50:54.554Z,25.30
2022-11-24T18:53:28.082Z,25.30
2022-11-24T18:56:04.318Z,25.30
2022-11-24T18:58:38.915Z,25.30
2022-11-24T19:01:12.238Z,25.30
2022-11-24T19:03:48.716Z,25.30
2022-11-24T19:06:24.050Z,25.30
2022-11-24T19:08:57.182Z,25.30
2022-11-24T19:11:32.525Z,25.30
2022-11-24T19:14:07.888Z,25.30
2022-11-24T19:16:40.703Z,25.30
2022-11-24T19:19:13.281Z,25.30
2022-11-24T19:21:45.145Z,25.30
2022-11-24T19:24:16.525Z,25.30
2022-11-24T19:26:47.820Z,25.30
2022-11-24T19:29:22.758Z,25.30
2022-11-24T19:31:56.684Z,25.30
2022-11-24T19:34:27.954Z,25.30
2022-11-24T19:36:59.323Z,25.30
2022-11-24T19:39:30.631Z,25.40
2022-11-24T19:42:02.369Z,25.30
2022-11-24T19:44:36.477Z,25.30
2022-11-24T19:47:08.231Z,25.30
2022-11-24T19:49:39.537Z,25.30
2022-11-24T19:52:11.117Z,25.30
2022-11-24T19:54:42.288Z,25.30
2022-11-24T19:57:13.856Z,25.30
2022-11-24T19:59:47.727Z,25.30
2022-11-24T20:02:19.520Z,25.30
2022-11-24T20:04:50.861Z,25.30
2022-11-24T20:07:22.630Z,25.30
2022-11-24T20:09:54.007Z,25.30
2022-11-24T20:12:25.400Z,25.30
2022-11-24T20:14:59.202Z,25.30
2022-11-24T20:17:33.066Z,25.30
2022-11-24T20:20:04.243Z,25.30
2022-11-24T20:22:35.772Z,25.30
2022-11-24T20:25:08.226Z,25.30
2022-11-24T20:27:39.827Z,25.30
2022-11-24T20:30:14.449Z,25.30
2022-11-24T20:32:46.144Z,25.30
2022-11-24T20:35:18.434Z,25.30
2022-11-24T20:40:35.964Z,25.30
2022-11-24T20:43:07.464Z,25.30
2022-11-24T20:45:42.473Z,25.30
2022-11-24T20:48:14.147Z,25.30
2022-11-24T20:50:50.999Z,25.30
2022-11-24T20:53:23.124Z,25.30
2022-11-24T20:55:54.364Z,25.30
2022-11-24T20:58:25.924Z,25.30
2022-11-24T21:01:06.693Z,25.30
2022-11-24T21:03:43.071Z,25.30
2022-11-24T21:06:15.480Z,25.30
2022-11-24T21:08:47.040Z,25.30
2022-11-24T21:11:18.814Z,25.40
2022-11-24T21:13:51.621Z,25.30
2022-11-24T21:16:27.942Z,25.30
2022-11-24T21:19:01.364Z,25.30
2022-11-24T21:21:36.189Z,25.30
2022-11-24T21:24:10.078Z,25.30
2022-11-24T21:26:42.677Z,25.30
2022-11-24T21:29:17.329Z,25.40
2022-11-24T21:31:51.462Z,25.30
2022-11-24T21:34:23.301Z,25.30
2022-11-24T21:36:54.467Z,25.30
2022-11-24T21:39:26.050Z,25.30
2022-11-24T21:41:57.246Z,25.30
2022-11-24T21:44:31.110Z,25.30
2022-11-24T21:47:04.909Z,25.30
2022-11-24T21:49:36.461Z,25.30
2022-11-24T21:52:08.021Z,25.30
2022-11-24T21:54:39.537Z,25.30
2022-11-24T21:57:10.722Z,25.40
2022-11-24T21:59:42.265Z,25.30
2022-11-24T22:02:16.764Z,25.40
2022-11-24T22:04:48.281Z,25.30
2022-11-24T22:07:19.519Z,25.30
2022-11-24T22:09:50.802Z,25.30
2022-11-24T22:12:21.761Z,25.30
2022-11-24T22:14:53.403Z,25.30
2022-11-24T22:17:27.169Z,25.30
2022-11-24T22:19:58.742Z,25.30
2022-11-24T22:22:30.015Z,25.30
2022-11-24T22:25:01.553Z,25.30
2022-11-24T22:27:32.743Z,25.30
2022-11-24T22:30:06.190Z,25.40
2022-11-24T22:32:39.995Z,25.30
2022-11-24T22:35:12.210Z,25.30
2022-11-24T22:37:43.453Z,25.30
2022-11-24T22:40:14.809Z,25.30
2022-11-24T22:42:46.290Z,25.40
2022-11-24T22:45:17.801Z,25.30
2022-11-24T22:47:51.479Z,25.40
2022-11-24T22:50:23.094Z,25.30
2022-11-24T22:52:54.268Z,25.40
2022-11-24T22:55:26.251Z,25.40
2022-11-24T22:57:57.312Z,25.40
2022-11-24T23:00:28.975Z,25.30
2022-11-24T23:03:03.148Z,25.40
2022-11-24T23:05:36.065Z,25.40
2022-11-24T23:08:07.944Z,25.40
2022-11-24T23:10:39.525Z,25.40
2022-11-24T23:13:10.796Z,25.40
2022-11-24T23:15:42.322Z,25.30
2022-11-24T23:18:16.421Z,25.40
2022-11-24T23:20:47.979Z,25.30
2022-11-24T23:23:19.263Z,25.30
2022-11-24T23:25:50.888Z,25.40
2022-11-24T23:28:22.185Z,25.30
2022-11-24T23:30:53.811Z,25.40
2022-11-24T23:33:27.601Z,25.40
2022-11-24T23:35:59.318Z,25.30
2022-11-24T23:38:32.920Z,25.40
2022-11-24T23:41:07.202Z,25.30
2022-11-24T23:43:39.266Z,25.30
2022-11-24T23:46:12.716Z,25.40
2022-11-24T23:48:47.229Z,25.30
2022-11-24T23:51:20.975Z,25.40
2022-11-24T23:56:38.771Z,25.30
2022-11-24T23:59:12.935Z,25.40
